createdAt,value
2023-04-03T00:01:25.642Z,100232.72
2023-04-03T00:03:54.124Z,100231.88
2023-04-03T00:06:21.437Z,100232.72
2023-04-03T00:08:50.738Z,100233.59
2023-04-03T00:11:19.462Z,100228.38
2023-04-03T00:13:47.002Z,100231.00
2023-04-03T00:16:14.485Z,100238.81
2023-04-03T00:18:41.938Z,100240.53
2023-04-03T00:21:14.339Z,100241.44
2023-04-03T00:23:41.800Z,100241.44
2023-04-03T00:26:09.266Z,100240.56
2023-04-03T00:28:38.807Z,100247.53
2023-04-03T00:31:07.295Z,100248.38
2023-04-03T00:33:34.659Z,100251.88
2023-04-03T00:36:08.025Z,100250.16
2023-04-03T00:38:42.201Z,100251.88
2023-04-03T00:41:10.774Z,100254.47
2023-04-03T00:43:37.978Z,100244.91
2023-04-03T00:46:06.463Z,100256.25
2023-04-03T00:48:41.016Z,100261.44
2023-04-03T00:51:12.690Z,100259.72
2023-04-03T00:53:48.962Z,100263.19
2023-04-03T00:56:21.017Z,100267.53
2023-04-03T00:59:14.851Z,100264.03
2023-04-03T01:01:43.197Z,100265.81
2023-04-03T01:04:37.475Z,100268.41
2023-04-03T01:07:09.491Z,100272.75
2023-04-03T01:09:40.082Z,100275.34
2023-04-03T01:12:19.086Z,100275.31
2023-04-03T01:14:49.796Z,100277.94
2023-04-03T01:17:42.437Z,100276.19
2023-04-03T01:20:12.535Z,100270.09
2023-04-03T01:22:55.170Z,100272.69
2023-04-03T01:25:25.740Z,100270.94
2023-04-03T01:27:55.001Z,100270.03
2023-04-03T01:30:29.332Z,100288.28
2023-04-03T01:32:56.454Z,100290.88
2023-04-03T01:35:24.255Z,100290.78
2023-04-03T01:37:58.091Z,100280.38
2023-04-03T01:40:26.809Z,100293.44
2023-04-03T01:42:53.983Z,100289.03
2023-04-03T01:45:27.617Z,100294.28
2023-04-03T01:47:55.462Z,100296.84
2023-04-03T01:50:23.051Z,100303.75
2023-04-03T01:52:50.496Z,100298.53
2023-04-03T01:55:20.040Z,100303.75
2023-04-03T01:57:48.594Z,100308.94
2023-04-03T02:00:16.273Z,100301.97
2023-04-03T02:02:43.483Z,100301.94
2023-04-03T02:05:11.037Z,100296.66
2023-04-03T02:07:38.306Z,100302.75
2023-04-03T02:10:06.119Z,100301.84
2023-04-03T02:12:33.774Z,100304.41
2023-04-03T02:15:02.262Z,100303.53
2023-04-03T02:17:37.062Z,100306.97
2023-04-03T02:20:05.076Z,100314.75
2023-04-03T02:22:32.986Z,100311.25
2023-04-03T02:25:01.903Z,100308.63
2023-04-03T02:27:29.416Z,100307.72
2023-04-03T02:29:56.897Z,100315.56
2023-04-03T02:32:24.378Z,100325.06
2023-04-03T02:34:51.766Z,100317.22
2023-04-03T02:37:19.308Z,100329.38
2023-04-03T02:39:46.764Z,100323.34
2023-04-03T02:42:15.824Z,100318.97
2023-04-03T02:44:43.414Z,100327.69
2023-04-03T02:47:10.931Z,100332.00
2023-04-03T02:49:38.173Z,100331.06
2023-04-03T02:52:05.802Z,100332.84
2023-04-03T02:54:33.999Z,100329.38
2023-04-03T02:57:01.088Z,100332.03
2023-04-03T02:59:28.610Z,100341.53
2023-04-03T03:01:57.023Z,100343.31
2023-04-03T03:04:24.392Z,100345.88
2023-04-03T03:06:52.207Z,100350.22
2023-04-03T03:09:21.792Z,100344.09
2023-04-03T03:11:49.327Z,100344.97
2023-04-03T03:14:16.833Z,100339.69
2023-04-03T03:16:44.232Z,100354.44
2023-04-03T03:19:11.861Z,100348.38
2023-04-03T03:21:39.189Z,100344.91
2023-04-03T03:24:06.946Z,100348.31
2023-04-03T03:26:34.347Z,100352.66
2023-04-03T03:29:01.553Z,100340.44
2023-04-03T03:31:29.153Z,100356.94
2023-04-03T03:33:57.730Z,100346.50
2023-04-03T03:36:26.147Z,100352.50
2023-04-03T03:38:53.656Z,100357.66
2023-04-03T03:41:21.068Z,100355.91
2023-04-03T03:43:48.496Z,100361.16
2023-04-03T03:46:15.932Z,100360.31
2023-04-03T03:48:44.524Z,100360.28
2023-04-03T03:51:12.868Z,100365.50
2023-04-03T03:53:41.492Z,100364.69
2023-04-03T03:56:08.870Z,100362.94
2023-04-03T03:58:36.354Z,100367.22
2023-04-03T04:01:07.023Z,100362.84
2023-04-03T04:03:34.694Z,100369.75
2023-04-03T04:06:02.582Z,100368.81
2023-04-03T04:08:30.279Z,100368.75
2023-04-03T04:11:03.780Z,100364.41
2023-04-03T04:13:33.334Z,100365.25
2023-04-03T04:16:01.202Z,100375.56
2023-04-03T04:18:28.789Z,100379.06
2023-04-03T04:20:57.290Z,100372.97
2023-04-03T04:23:24.766Z,100386.75
2023-04-03T04:25:53.374Z,100381.47
2023-04-03T04:28:21.680Z,100382.34
2023-04-03T04:30:50.273Z,100386.59
2023-04-03T04:33:18.782Z,100383.81
2023-04-03T04:35:49.422Z,100389.91
2023-04-03T04:38:17.691Z,100389.03
2023-04-03T04:40:48.995Z,100391.53
2023-04-03T04:43:16.735Z,100402.84
2023-04-03T04:45:45.167Z,100406.31
2023-04-03T04:48:19.183Z,100401.91
2023-04-03T04:50:47.751Z,100411.47
2023-04-03T04:53:15.246Z,100406.28
2023-04-03T04:55:42.750Z,100406.31
2023-04-03T04:58:10.200Z,100415.03
2023-04-03T05:00:38.806Z,100420.25
2023-04-03T05:03:06.129Z,100420.34
2023-04-03T05:05:33.749Z,100415.19
2023-04-03T05:08:00.920Z,100421.22
2023-04-03T05:10:28.354Z,100425.56
2023-04-03T05:12:56.061Z,100425.59
2023-04-03T05:15:23.309Z,100428.22
2023-04-03T05:17:51.756Z,100431.72
2023-04-03T05:20:19.483Z,100429.13
2023-04-03T05:22:46.911Z,100429.13
2023-04-03T05:25:14.346Z,100438.63
2023-04-03T05:27:41.567Z,100435.16
2023-04-03T05:30:14.627Z,100438.72
2023-04-03T05:32:42.585Z,100435.19
2023-04-03T05:35:11.413Z,100440.34
2023-04-03T05:37:51.402Z,100443.81
2023-04-03T05:40:20.199Z,100455.03
2023-04-03T05:42:49.448Z,100446.41
2023-04-03T05:45:19.040Z,100445.59
2023-04-03T05:47:46.427Z,100444.78
2023-04-03T05:50:15.565Z,100450.03
2023-04-03T05:52:49.821Z,100452.75
2023-04-03T05:55:16.975Z,100457.19
2023-04-03T05:57:44.412Z,100458.03
2023-04-03T06:00:16.808Z,100452.00
2023-04-03T06:02:44.292Z,100453.00
2023-04-03T06:05:13.494Z,100451.41
2023-04-03T06:07:41.178Z,100450.59
2023-04-03T06:10:10.262Z,100461.91
2023-04-03T06:12:37.796Z,100448.03
2023-04-03T06:15:06.087Z,100455.84
2023-04-03T06:17:35.404Z,100463.66
2023-04-03T06:20:09.267Z,100462.88
2023-04-03T06:22:38.185Z,100472.59
2023-04-03T06:25:06.548Z,100460.53
2023-04-03T06:27:36.074Z,100464.06
2023-04-03T06:30:06.920Z,100474.56
2023-04-03T06:32:34.683Z,100466.03
2023-04-03T06:35:03.599Z,100472.13
2023-04-03T06:37:32.536Z,100472.94
2023-04-03T06:40:01.687Z,100466.78
2023-04-03T06:42:35.018Z,100466.00
2023-04-03T06:45:03.312Z,100478.13
2023-04-03T06:47:31.274Z,100473.06
2023-04-03T06:49:58.957Z,100474.00
2023-04-03T06:52:32.643Z,100480.94
2023-04-03T06:55:00.885Z,100473.13
2023-04-03T06:57:28.051Z,100484.50
2023-04-03T06:59:55.324Z,100486.28
2023-04-03T07:02:24.297Z,100487.16
2023-04-03T07:04:51.951Z,100482.91
2023-04-03T07:07:20.639Z,100487.34
2023-04-03T07:09:49.249Z,100495.19
2023-04-03T07:12:17.992Z,100495.22
2023-04-03T07:14:45.265Z,100494.53
2023-04-03T07:17:13.739Z,100501.56
2023-04-03T07:19:41.425Z,100505.16
2023-04-03T07:22:12.333Z,100505.22
2023-04-03T07:24:41.173Z,100507.03
2023-04-03T07:27:09.832Z,100509.69
2023-04-03T07:29:37.275Z,100507.06
2023-04-03T07:32:05.008Z,100504.47
2023-04-03T07:34:33.873Z,100514.94
2023-04-03T07:37:03.882Z,100522.75
2023-04-03T07:39:31.247Z,100525.41
2023-04-03T07:41:58.336Z,100524.56
2023-04-03T07:44:26.128Z,100508.03
2023-04-03T07:46:53.629Z,100508.00
2023-04-03T07:49:27.376Z,100519.34
2023-04-03T07:51:55.762Z,100516.72
2023-04-03T07:54:22.959Z,100515.81
2023-04-03T07:56:50.693Z,100517.59
2023-04-03T07:59:17.871Z,100516.75
2023-04-03T08:01:45.479Z,100512.38
2023-04-03T08:04:13.042Z,100515.88
2023-04-03T08:06:46.399Z,100519.41
2023-04-03T08:09:16.714Z,100517.66
2023-04-03T08:11:44.313Z,100516.81
2023-04-03T08:14:17.467Z,100515.03
2023-04-03T08:16:46.900Z,100518.53
2023-04-03T08:19:25.311Z,100509.81
2023-04-03T08:22:02.093Z,100508.06
2023-04-03T08:24:29.443Z,100511.53
2023-04-03T08:26:56.831Z,100511.53
2023-04-03T08:29:25.031Z,100511.50
2023-04-03T08:31:52.348Z,100501.88
2023-04-03T08:34:20.602Z,100506.22
2023-04-03T08:36:48.565Z,100512.28
2023-04-03T08:39:15.743Z,100514.03
2023-04-03T08:41:50.538Z,100509.69
2023-04-03T08:44:33.381Z,100522.91
2023-04-03T08:47:26.432Z,100522.91
2023-04-03T08:50:00.780Z,100517.66
2023-04-03T08:52:39.425Z,100508.91
2023-04-03T08:55:17.232Z,100516.78
2023-04-03T08:57:46.961Z,100521.16
2023-04-03T09:00:22.544Z,100517.69
2023-04-03T09:02:57.874Z,100522.03
2023-04-03T09:05:44.487Z,100515.03
2023-04-03T09:08:27.284Z,100510.63
2023-04-03T09:11:19.390Z,100514.91
2023-04-03T09:14:04.544Z,100512.19
2023-04-03T09:16:41.161Z,100510.53
2023-04-03T09:19:30.064Z,100514.06
2023-04-03T09:22:21.474Z,100516.56
2023-04-03T09:24:57.901Z,100525.34
2023-04-03T09:27:26.205Z,100522.72
2023-04-03T09:29:58.108Z,100525.19
2023-04-03T09:32:32.607Z,100525.91
2023-04-03T09:35:20.728Z,100526.72
2023-04-03T09:38:11.688Z,100523.41
2023-04-03T09:40:41.724Z,100517.91
2023-04-03T09:43:30.064Z,100512.19
2023-04-03T09:46:19.418Z,100518.41
2023-04-03T09:49:07.440Z,100527.75
2023-04-03T09:51:36.507Z,100527.81
2023-04-03T09:54:38.835Z,100524.56
2023-04-03T09:57:11.443Z,100521.09
2023-04-03T09:59:45.037Z,100535.59
2023-04-03T10:02:34.053Z,100530.22
2023-04-03T10:07:38.413Z,100519.72
2023-04-03T10:10:19.179Z,100517.34
2023-04-03T10:12:47.021Z,100523.47
2023-04-03T10:15:22.078Z,100508.59
2023-04-03T10:18:08.765Z,100527.38
2023-04-03T10:20:50.879Z,100526.25
2023-04-03T10:23:24.530Z,100521.22
2023-04-03T10:26:01.768Z,100524.94
2023-04-03T10:28:54.879Z,100524.56
2023-04-03T10:31:24.989Z,100529.06
2023-04-03T10:34:06.332Z,100522.69
2023-04-03T10:36:53.724Z,100526.22
2023-04-03T10:39:38.674Z,100522.47
2023-04-03T10:42:36.441Z,100509.78
2023-04-03T10:45:23.528Z,100510.13
2023-04-03T10:48:15.228Z,100512.81
2023-04-03T10:51:07.601Z,100519.31
2023-04-03T10:53:53.601Z,100515.84
2023-04-03T10:56:46.319Z,100513.34
2023-04-03T10:59:37.121Z,100513.47
2023-04-03T11:02:49.535Z,100523.16
2023-04-03T11:05:26.665Z,100519.53
2023-04-03T11:07:58.707Z,100513.28
2023-04-03T11:10:39.037Z,100525.00
2023-04-03T11:13:44.979Z,100518.16
2023-04-03T11:16:21.101Z,100522.66
2023-04-03T11:18:58.729Z,100531.44
2023-04-03T11:21:58.530Z,100520.28
2023-04-03T11:24:31.450Z,100514.63
2023-04-03T11:27:05.031Z,100509.13
2023-04-03T11:29:37.836Z,100499.59
2023-04-03T11:32:33.373Z,100503.94
2023-04-03T11:35:09.980Z,100504.84
2023-04-03T11:37:41.955Z,100507.66
2023-04-03T11:40:32.138Z,100496.44
2023-04-03T11:43:19.813Z,100502.03
2023-04-03T11:45:58.309Z,100483.72
2023-04-03T11:48:29.658Z,100494.34
2023-04-03T11:50:59.497Z,100480.03
2023-04-03T11:53:40.394Z,100472.69
2023-04-03T11:56:28.653Z,100486.72
2023-04-03T11:59:13.893Z,100476.91
2023-04-03T12:01:47.383Z,100477.41
2023-04-03T12:04:18.936Z,100483.69
2023-04-03T12:06:46.645Z,100464.84
2023-04-03T12:09:31.761Z,100483.75
2023-04-03T12:12:01.826Z,100486.47
2023-04-03T12:14:30.325Z,100491.38
2023-04-03T12:16:59.234Z,100495.75
2023-04-03T12:22:10.596Z,100483.63
2023-04-03T12:24:43.950Z,100479.91
2023-04-03T12:27:39.866Z,100476.59
2023-04-03T12:30:16.597Z,100470.63
2023-04-03T12:32:52.127Z,100476.06
2023-04-03T12:35:33.762Z,100475.19
2023-04-03T12:38:26.554Z,100481.47
2023-04-03T12:40:56.848Z,100481.81
2023-04-03T12:43:30.654Z,100472.50
2023-04-03T12:46:13.825Z,100471.03
2023-04-03T12:49:00.962Z,100465.03
2023-04-03T12:51:45.957Z,100471.22
2023-04-03T12:54:47.006Z,100475.06
2023-04-03T12:57:28.932Z,100468.34
2023-04-03T12:59:57.712Z,100466.22
2023-04-03T13:02:31.208Z,100456.03
2023-04-03T13:05:11.266Z,100455.84
2023-04-03T13:07:42.062Z,100454.09
2023-04-03T13:10:09.395Z,100469.44
2023-04-03T13:12:54.116Z,100469.03
2023-04-03T13:15:41.653Z,100466.72
2023-04-03T13:18:31.255Z,100473.53
2023-04-03T13:21:09.312Z,100457.41
2023-04-03T13:23:40.041Z,100452.94
2023-04-03T13:26:08.354Z,100451.34
2023-04-03T13:28:37.244Z,100453.88
2023-04-03T13:31:20.253Z,100457.97
2023-04-03T13:34:00.189Z,100454.25
2023-04-03T13:36:32.965Z,100447.13
2023-04-03T13:39:14.636Z,100445.44
2023-04-03T13:42:00.162Z,100456.19
2023-04-03T13:44:36.985Z,100468.56
2023-04-03T13:47:13.328Z,100465.28
2023-04-03T13:49:43.811Z,100445.50
2023-04-03T13:52:30.430Z,100441.47
2023-04-03T13:55:05.769Z,100447.84
2023-04-03T13:57:35.664Z,100464.41
2023-04-03T14:00:22.234Z,100457.66
2023-04-03T14:02:49.991Z,100453.63
2023-04-03T14:05:19.510Z,100446.66
2023-04-03T14:07:47.228Z,100444.88
2023-04-03T14:10:15.905Z,100446.38
2023-04-03T14:12:43.404Z,100457.53
2023-04-03T14:15:26.171Z,100458.22
2023-04-03T14:17:54.721Z,100452.78
2023-04-03T14:20:25.873Z,100455.66
2023-04-03T14:22:55.235Z,100456.03
2023-04-03T14:25:25.156Z,100455.00
2023-04-03T14:27:59.018Z,100446.81
2023-04-03T14:30:30.348Z,100441.75
2023-04-03T14:32:58.356Z,100436.78
2023-04-03T14:35:28.285Z,100438.34
2023-04-03T14:37:56.599Z,100453.88
2023-04-03T14:40:27.504Z,100453.06
2023-04-03T14:42:56.665Z,100453.16
2023-04-03T14:45:24.482Z,100447.66
2023-04-03T14:48:00.724Z,100451.94
2023-04-03T14:50:30.538Z,100436.25
2023-04-03T14:53:00.133Z,100457.16
2023-04-03T14:55:33.560Z,100458.06
2023-04-03T14:58:01.328Z,100453.75
2023-04-03T15:00:28.507Z,100462.22
2023-04-03T15:02:55.802Z,100455.16
2023-04-03T15:05:23.653Z,100448.69
2023-04-03T15:08:01.754Z,100452.16
2023-04-03T15:10:32.038Z,100458.88
2023-04-03T15:13:01.292Z,100461.00
2023-04-03T15:15:31.350Z,100469.31
2023-04-03T15:18:06.223Z,100469.69
2023-04-03T15:20:34.920Z,100467.16
2023-04-03T15:23:03.395Z,100479.50
2023-04-03T15:25:33.881Z,100473.56
2023-04-03T15:28:01.596Z,100478.97
2023-04-03T15:30:29.895Z,100473.94
2023-04-03T15:32:57.402Z,100478.47
2023-04-03T15:35:25.904Z,100478.38
2023-04-03T15:38:00.570Z,100476.41
2023-04-03T15:40:28.046Z,100471.22
2023-04-03T15:42:56.522Z,100478.31
2023-04-03T15:45:31.939Z,100476.78
2023-04-03T15:47:59.521Z,100486.53
2023-04-03T15:50:26.983Z,100485.81
2023-04-03T15:52:59.081Z,100488.41
2023-04-03T15:55:27.668Z,100490.88
2023-04-03T15:57:57.876Z,100483.97
2023-04-03T16:00:27.901Z,100489.25
2023-04-03T16:03:02.847Z,100494.56
2023-04-03T16:05:30.177Z,100486.78
2023-04-03T16:07:59.293Z,100484.22
2023-04-03T16:10:26.725Z,100496.53
2023-04-03T16:12:53.970Z,100493.84
2023-04-03T16:15:21.431Z,100495.59
2023-04-03T16:17:49.488Z,100486.00
2023-04-03T16:20:19.918Z,100488.66
2023-04-03T16:22:47.442Z,100502.72
2023-04-03T16:25:14.889Z,100507.03
2023-04-03T16:27:42.331Z,100495.72
2023-04-03T16:30:11.867Z,100503.56
2023-04-03T16:32:42.051Z,100504.50
2023-04-03T16:35:12.028Z,100504.50
2023-04-03T16:37:42.061Z,100511.47
2023-04-03T16:40:10.274Z,100504.50
2023-04-03T16:42:38.839Z,100511.47
2023-04-03T16:45:09.009Z,100504.50
2023-04-03T16:47:36.387Z,100510.63
2023-04-03T16:50:04.334Z,100512.38
2023-04-03T16:52:31.697Z,100519.34
2023-04-03T16:55:00.159Z,100522.88
2023-04-03T16:57:27.898Z,100522.00
2023-04-03T16:59:55.994Z,100526.34
2023-04-03T17:02:27.534Z,100525.47
2023-04-03T17:04:55.602Z,100529.88
2023-04-03T17:07:24.835Z,100524.59
2023-04-03T17:09:54.911Z,100533.38
2023-04-03T17:12:23.031Z,100525.50
2023-04-03T17:14:50.835Z,100532.47
2023-04-03T17:17:23.665Z,100532.50
2023-04-03T17:19:52.805Z,100533.34
2023-04-03T17:22:20.194Z,100523.78
2023-04-03T17:24:47.780Z,100537.72
2023-04-03T17:27:16.557Z,100533.38
2023-04-03T17:29:45.072Z,100534.25
2023-04-03T17:32:13.645Z,100541.22
2023-04-03T17:34:43.108Z,100545.56
2023-04-03T17:37:12.099Z,100547.31
2023-04-03T17:39:40.957Z,100549.06
2023-04-03T17:42:08.951Z,100545.56
2023-04-03T17:44:38.536Z,100562.16
2023-04-03T17:47:08.120Z,100549.94
2023-04-03T17:49:36.147Z,100551.66
2023-04-03T17:52:03.648Z,100556.03
2023-04-03T17:54:31.018Z,100549.91
2023-04-03T17:56:58.419Z,100552.53
2023-04-03T17:59:29.757Z,100560.38
2023-04-03T18:01:58.771Z,100556.91
2023-04-03T18:04:27.047Z,100553.41
2023-04-03T18:06:56.628Z,100553.41
2023-04-03T18:09:31.916Z,100549.91
2023-04-03T18:12:02.616Z,100559.50
2023-04-03T18:14:30.913Z,100558.63
2023-04-03T18:16:59.543Z,100556.88
2023-04-03T18:19:29.743Z,100556.00
2023-04-03T18:22:04.435Z,100552.50
2023-04-03T18:24:40.190Z,100562.09
2023-04-03T18:27:13.775Z,100560.34
2023-04-03T18:29:44.476Z,100559.50
2023-04-03T18:32:17.204Z,100549.00
2023-04-03T18:34:47.396Z,100558.56
2023-04-03T18:37:17.319Z,100561.19
2023-04-03T18:39:45.791Z,100569.03
2023-04-03T18:42:19.262Z,100566.38
2023-04-03T18:44:49.081Z,100568.16
2023-04-03T18:47:18.671Z,100575.97
2023-04-03T18:49:46.357Z,100577.72
2023-04-03T18:52:14.609Z,100574.25
2023-04-03T18:54:44.016Z,100575.94
2023-04-03T18:57:12.562Z,100569.84
2023-04-03T18:59:40.247Z,100564.63
2023-04-03T19:02:09.912Z,100569.81
2023-04-03T19:04:38.141Z,100568.06
2023-04-03T19:07:10.262Z,100561.09
2023-04-03T19:09:39.347Z,100561.09
2023-04-03T19:12:09.077Z,100564.56
2023-04-03T19:14:37.310Z,100564.53
2023-04-03T19:17:08.822Z,100561.97
2023-04-03T19:19:37.565Z,100560.22
2023-04-03T19:22:08.358Z,100558.44
2023-04-03T19:24:37.046Z,100567.19
2023-04-03T19:27:05.137Z,100560.16
2023-04-03T19:29:34.174Z,100557.50
2023-04-03T19:32:06.588Z,100561.88
2023-04-03T19:34:34.900Z,100560.09
2023-04-03T19:37:03.197Z,100559.22
2023-04-03T19:39:39.547Z,100563.50
2023-04-03T19:42:09.377Z,100559.16
2023-04-03T19:44:38.138Z,100563.50
2023-04-03T19:47:06.903Z,100568.69
2023-04-03T19:49:36.867Z,100572.09
2023-04-03T19:52:07.575Z,100572.09
2023-04-03T19:54:36.033Z,100567.72
2023-04-03T19:57:04.553Z,100576.38
2023-04-03T19:59:32.884Z,100571.16
2023-04-03T20:02:01.178Z,100565.97
2023-04-03T20:04:29.406Z,100571.22
2023-04-03T20:06:58.552Z,100562.50
2023-04-03T20:09:27.804Z,100561.63
2023-04-03T20:11:56.832Z,100558.19
2023-04-03T20:14:24.743Z,100554.69
2023-04-03T20:16:52.410Z,100562.50
2023-04-03T20:19:20.607Z,100560.78
2023-04-03T20:21:50.915Z,100565.09
2023-04-03T20:24:18.583Z,100565.91
2023-04-03T20:26:47.871Z,100572.00
2023-04-03T20:29:16.951Z,100569.41
2023-04-03T20:31:44.608Z,100564.13
2023-04-03T20:34:14.360Z,100561.50
2023-04-03T20:36:43.329Z,100562.28
2023-04-03T20:39:11.357Z,100569.19
2023-04-03T20:41:39.745Z,100573.47
2023-04-03T20:44:07.455Z,100572.56
2023-04-03T20:46:51.426Z,100574.19
2023-04-03T20:49:21.497Z,100575.06
2023-04-03T20:51:51.435Z,100578.44
2023-04-03T20:54:19.830Z,100579.34
2023-04-03T20:56:50.257Z,100576.66
2023-04-03T20:59:18.761Z,100585.38
2023-04-03T21:01:53.645Z,100578.44
2023-04-03T21:04:30.825Z,100585.34
2023-04-03T21:07:39.223Z,100582.66
2023-04-03T21:10:44.059Z,100586.97
2023-04-03T21:13:48.966Z,100592.19
2023-04-03T21:16:16.907Z,100587.75
2023-04-03T21:19:03.431Z,100571.25
2023-04-03T21:21:31.558Z,100586.78
2023-04-03T21:24:07.334Z,100578.84
2023-04-03T21:26:34.797Z,100588.53
2023-04-03T21:29:03.384Z,100587.63
2023-04-03T21:31:59.464Z,100591.13
2023-04-03T21:34:30.968Z,100594.56
2023-04-03T21:37:03.209Z,100590.19
2023-04-03T21:39:31.624Z,100588.41
2023-04-03T21:42:00.452Z,100591.00
2023-04-03T21:44:30.641Z,100593.50
2023-04-03T21:46:58.913Z,100593.56
2023-04-03T21:49:38.935Z,100594.44
2023-04-03T21:52:07.000Z,100591.78
2023-04-03T21:54:34.461Z,100589.16
2023-04-03T21:57:01.946Z,100596.84
2023-04-03T21:59:29.562Z,100593.41
2023-04-03T22:01:56.881Z,100596.78
2023-04-03T22:04:24.898Z,100596.84
2023-04-03T22:06:53.706Z,100592.44
2023-04-03T22:09:23.030Z,100588.88
2023-04-03T22:11:52.610Z,100589.69
2023-04-03T22:14:22.123Z,100596.69
2023-04-03T22:16:49.407Z,100590.56
2023-04-03T22:19:16.804Z,100593.06
2023-04-03T22:21:44.352Z,100594.78
2023-04-03T22:24:13.848Z,100599.94
2023-04-03T22:26:44.684Z,100589.44
2023-04-03T22:29:13.603Z,100592.75
2023-04-03T22:31:48.085Z,100592.63
2023-04-03T22:34:16.936Z,100583.13
2023-04-03T22:36:46.787Z,100587.31
2023-04-03T22:39:22.566Z,100584.75
2023-04-03T22:41:50.736Z,100590.69
2023-04-03T22:44:19.044Z,100591.38
2023-04-03T22:46:46.734Z,100588.78
2023-04-03T22:49:14.032Z,100595.66
2023-04-03T22:51:41.710Z,100591.28
2023-04-03T22:54:09.924Z,100593.81
2023-04-03T22:56:37.506Z,100588.47
2023-04-03T22:59:04.900Z,100594.41
2023-04-03T23:01:32.655Z,100587.56
2023-04-03T23:04:00.336Z,100585.84
2023-04-03T23:06:28.490Z,100580.47
2023-04-03T23:08:57.858Z,100579.63
2023-04-03T23:11:25.270Z,100575.22
2023-04-03T23:13:52.667Z,100572.59
2023-04-03T23:16:20.109Z,100573.34
2023-04-03T23:18:50.241Z,100570.81
2023-04-03T23:21:17.649Z,100568.13
2023-04-03T23:23:47.335Z,100569.75
2023-04-03T23:26:15.918Z,100572.41
2023-04-03T23:28:43.104Z,100568.88
2023-04-03T23:31:10.732Z,100567.81
2023-04-03T23:33:38.889Z,100560.09
2023-04-03T23:36:09.928Z,100549.66
2023-04-03T23:38:37.805Z,100545.25
2023-04-03T23:41:05.041Z,100554.66
2023-04-03T23:43:32.388Z,100548.53
2023-04-03T23:46:00.035Z,100543.28
2023-04-03T23:48:33.414Z,100549.25
2023-04-03T23:51:00.777Z,100544.00
2023-04-03T23:53:28.903Z,100539.53
2023-04-03T23:55:56.388Z,100539.50
2023-04-03T23:58:26.083Z,100539.50
